Time;durP1;ratioP1;P1;durP2;ratioP2;P2;SDS_P1;SDS_P2;PMS_P1;PMS_P2;Temp;Humidity;BMP_temperature;BMP_pressure;BME280_temperature;BME280_humidity;BME280_pressure;Samples;Min_cycle;Max_cycle;Signal;HPM_P1;HPM_P2
2021/12/25 00:00:38;;;;;;;0.60;0.60;;;;;;;0.35;91.07;95311.41;107878;1283;43531;-76
2021/12/25 00:03:09;;;;;;;0.90;0.50;;;;;;;0.34;91.16;95310.83;107922;1283;38449;-75
2021/12/25 00:05:37;;;;;;;0.70;0.50;;;;;;;0.30;91.19;95301.10;107860;1281;60856;-76
2021/12/25 00:08:06;;;;;;;0.30;0.30;;;;;;;0.25;91.00;95318.32;107888;1284;33563;-75
2021/12/25 00:10:35;;;;;;;1.20;0.50;;;;;;;0.18;91.04;95326.46;107910;1284;43909;-75
2021/12/25 00:13:03;;;;;;;2.40;0.40;;;;;;;0.09;90.67;95334.16;107864;1284;46518;-75
2021/12/25 00:15:31;;;;;;;0.50;0.50;;;;;;;0.02;90.65;95337.77;107885;1283;36522;-75
2021/12/25 00:18:00;;;;;;;0.50;0.50;;;;;;;-0.03;90.55;95343.59;107946;1284;43025;-75
2021/12/25 00:20:30;;;;;;;0.10;0.10;;;;;;;-0.07;90.52;95334.96;107980;1283;32002;-76
2021/12/25 00:23:00;;;;;;;2.40;0.70;;;;;;;-0.09;90.39;95337.96;107938;1283;47251;-75
2021/12/25 00:25:32;;;;;;;0.50;0.40;;;;;;;-0.12;90.67;95343.66;108016;1284;37214;-76
2021/12/25 00:28:15;;;;;;;1.50;0.60;;;;;;;-0.16;90.56;95337.09;107975;1283;36474;-75
2021/12/25 00:30:59;;;;;;;1.60;0.50;;;;;;;-0.19;90.69;95349.64;107912;1284;34108;-75
2021/12/25 00:33:35;;;;;;;0.80;0.50;;;;;;;-0.21;90.80;95357.02;107892;1283;63715;-75
2021/12/25 00:36:05;;;;;;;0.50;0.30;;;;;;;-0.23;90.99;95356.64;107909;1283;30833;-76
2021/12/25 00:38:36;;;;;;;0.50;0.50;;;;;;;-0.24;91.08;95352.92;107865;1284;38750;-75
2021/12/25 00:41:05;;;;;;;0.90;0.50;;;;;;;-0.24;91.00;95359.39;107972;1283;40361;-76
2021/12/25 00:43:34;;;;;;;1.20;0.70;;;;;;;-0.23;91.05;95358.10;107943;1284;29990;-75
2021/12/25 00:46:02;;;;;;;1.00;0.70;;;;;;;-0.23;91.13;95360.55;107872;1284;38928;-75
2021/12/25 00:48:30;;;;;;;1.80;0.90;;;;;;;-0.24;91.67;95356.88;108145;1279;29916;-75
2021/12/25 00:50:59;;;;;;;1.80;0.90;;;;;;;-0.26;92.08;95361.81;108108;1284;34657;-76
2021/12/25 00:53:28;;;;;;;1.70;0.80;;;;;;;-0.25;92.21;95368.64;108105;1284;38640;-75
2021/12/25 00:55:58;;;;;;;0.70;0.70;;;;;;;-0.25;92.21;95376.05;107917;1284;34892;-76
2021/12/25 00:58:26;;;;;;;0.50;0.40;;;;;;;-0.24;92.63;95375.90;107943;1284;54539;-76
2021/12/25 01:00:55;;;;;;;0.90;0.80;;;;;;;-0.24;92.92;95376.84;108147;1283;39131;-76
2021/12/25 01:03:23;;;;;;;0.90;0.80;;;;;;;-0.25;92.78;95384.85;107926;1283;32641;-76
2021/12/25 01:05:52;;;;;;;2.40;1.10;;;;;;;-0.25;92.89;95392.98;107880;1284;38132;-76
2021/12/25 01:08:20;;;;;;;1.80;0.90;;;;;;;-0.26;92.32;95395.14;107865;1283;42789;-76
2021/12/25 01:10:48;;;;;;;0.80;0.60;;;;;;;-0.26;92.57;95403.16;107850;1284;57335;-76
2021/12/25 01:13:23;;;;;;;3.30;0.80;;;;;;;-0.26;92.46;95408.16;107851;1284;45539;-76
2021/12/25 01:16:04;;;;;;;0.40;0.40;;;;;;;-0.27;92.59;95410.29;108024;1284;40231;-76
2021/12/25 01:19:01;;;;;;;1.10;0.70;;;;;;;-0.28;92.60;95406.81;107879;1282;36050;-76
2021/12/25 01:30:08;;;;;;;1.10;0.90;;;;;;;-0.26;92.42;95424.27;107713;1287;38947;-76
2021/12/25 01:36:00;;;;;;;2.10;0.70;;;;;;;-0.25;92.12;95437.14;107900;1284;33147;-76
2021/12/25 01:38:50;;;;;;;3.60;0.60;;;;;;;-0.24;91.72;95438.56;107961;1284;36437;-76
2021/12/25 01:41:41;;;;;;;0.60;0.60;;;;;;;-0.23;91.23;95429.92;107887;1283;41027;-76
2021/12/25 01:49:43;;;;;;;1.90;0.90;;;;;;;-0.19;90.38;95444.96;108066;1283;39829;-76
2021/12/25 01:52:11;;;;;;;2.40;1.10;;;;;;;-0.19;90.12;95435.65;108106;1282;58256;-76
2021/12/25 01:54:39;;;;;;;1.40;1.00;;;;;;;-0.19;90.00;95429.14;108038;1278;41825;-76
2021/12/25 01:57:09;;;;;;;1.30;1.10;;;;;;;-0.19;90.04;95441.74;108072;1284;31842;-76
2021/12/25 01:59:37;;;;;;;1.60;0.80;;;;;;;-0.21;89.96;95447.77;108055;1283;32689;-76
2021/12/25 02:02:06;;;;;;;3.10;1.30;;;;;;;-0.22;90.24;95457.59;108040;1283;53516;-76
2021/12/25 02:04:34;;;;;;;1.80;1.00;;;;;;;-0.22;89.87;95451.86;108072;1284;35720;-76
2021/12/25 02:07:03;;;;;;;1.60;1.10;;;;;;;-0.22;90.08;95457.44;108061;1282;32740;-76
2021/12/25 02:09:31;;;;;;;1.40;1.00;;;;;;;-0.22;90.23;95456.55;108072;1284;38633;-76
2021/12/25 02:12:00;;;;;;;4.00;1.30;;;;;;;-0.23;90.30;95454.98;108198;1283;29730;-76
2021/12/25 02:14:29;;;;;;;3.50;1.10;;;;;;;-0.25;90.15;95455.02;108105;1283;37182;-76
2021/12/25 02:17:05;;;;;;;1.40;1.30;;;;;;;-0.27;90.23;95456.39;108147;1284;34969;-76
2021/12/25 02:19:39;;;;;;;3.00;1.00;;;;;;;-0.28;90.08;95469.75;108090;1283;35657;-76
2021/12/25 02:22:09;;;;;;;1.20;0.80;;;;;;;-0.31;89.89;95477.14;108045;1284;46475;-76
2021/12/25 02:24:37;;;;;;;0.80;0.70;;;;;;;-0.33;89.18;95466.13;108067;1279;44640;-76
2021/12/25 02:27:06;;;;;;;2.10;0.70;;;;;;;-0.32;88.67;95472.91;108054;1278;31071;-76
2021/12/25 02:29:35;;;;;;;1.40;0.70;;;;;;;-0.32;88.14;95471.14;108007;1282;42303;-76
2021/12/25 02:32:06;;;;;;;2.60;1.30;;;;;;;-0.32;87.64;95476.71;108084;1281;31311;-76
2021/12/25 02:34:34;;;;;;;0.60;0.60;;;;;;;-0.33;86.99;95490.34;108063;1284;37669;-77
2021/12/25 02:37:03;;;;;;;1.20;1.10;;;;;;;-0.33;87.22;95507.89;107858;1283;53217;-76
2021/12/25 02:39:31;;;;;;;0.80;0.70;;;;;;;-0.35;87.08;95510.20;107926;1284;33394;-76
2021/12/25 02:41:59;;;;;;;1.30;1.00;;;;;;;-0.39;86.51;95513.59;107963;1284;44373;-76
2021/12/25 02:44:28;;;;;;;1.60;0.70;;;;;;;-0.42;86.43;95513.70;108136;1282;29388;-76
2021/12/25 02:46:58;;;;;;;2.00;1.10;;;;;;;-0.45;86.21;95504.46;108000;1283;32869;-76
2021/12/25 02:49:27;;;;;;;3.20;0.80;;;;;;;-0.46;86.12;95511.79;108121;1284;43779;-76
2021/12/25 02:51:55;;;;;;;1.70;1.30;;;;;;;-0.47;86.44;95510.73;107920;1283;32158;-76
2021/12/25 02:54:23;;;;;;;1.20;0.90;;;;;;;-0.48;86.26;95504.47;108031;1283;43964;-76
2021/12/25 02:56:53;;;;;;;2.00;0.80;;;;;;;-0.48;86.09;95511.60;107907;1282;32493;-76
2021/12/25 02:59:21;;;;;;;1.30;1.00;;;;;;;-0.47;85.99;95510.63;107937;1283;36046;-76
2021/12/25 03:01:50;;;;;;;2.10;1.70;;;;;;;-0.47;86.00;95511.20;107974;1283;33905;-76
2021/12/25 03:04:18;;;;;;;1.90;1.10;;;;;;;-0.48;86.38;95514.95;107847;1283;62433;-76
2021/12/25 03:06:46;;;;;;;2.40;1.30;;;;;;;-0.49;86.48;95519.86;107916;1284;34119;-76
2021/12/25 03:09:14;;;;;;;2.80;1.90;;;;;;;-0.49;86.94;95536.10;107896;1284;40202;-76
2021/12/25 03:11:43;;;;;;;1.90;1.40;;;;;;;-0.50;87.08;95535.06;107914;1282;32185;-76
2021/12/25 03:14:23;;;;;;;3.10;1.80;;;;;;;-0.49;87.21;95530.90;107888;1283;68639;-76
2021/12/25 03:16:51;;;;;;;2.80;1.90;;;;;;;-0.51;87.33;95531.38;108044;1283;33723;-76
2021/12/25 03:19:27;;;;;;;2.90;1.70;;;;;;;-0.53;88.06;95550.53;107961;1284;36466;-76
2021/12/25 03:21:57;;;;;;;3.10;2.20;;;;;;;-0.52;88.02;95544.45;107947;1284;32213;-76
2021/12/25 03:24:25;;;;;;;4.20;2.10;;;;;;;-0.53;88.07;95549.33;107883;1284;67734;-76
2021/12/25 03:26:55;;;;;;;3.00;1.80;;;;;;;-0.54;88.40;95553.64;107879;1284;40253;-76
2021/12/25 03:29:23;;;;;;;;;;;;;;;-0.53;88.46;95554.38;107944;1284;33062;-76
2021/12/25 03:31:54;;;;;;;2.20;1.50;;;;;;;-0.52;88.60;95561.63;108047;1282;36963;-76
2021/12/25 03:34:22;;;;;;;5.10;2.60;;;;;;;-0.52;88.84;95557.77;107971;1283;38551;-76
2021/12/25 03:36:50;;;;;;;6.00;1.90;;;;;;;-0.51;88.93;95555.13;108001;1282;41892;-76
2021/12/25 03:39:19;;;;;;;5.30;2.90;;;;;;;-0.51;89.10;95560.09;107982;1284;46070;-76
2021/12/25 03:41:47;;;;;;;3.30;2.20;;;;;;;-0.51;89.27;95562.58;108077;1283;35505;-76
2021/12/25 03:44:15;;;;;;;5.40;2.70;;;;;;;-0.51;89.18;95563.16;108012;1282;40219;-76
2021/12/25 03:46:44;;;;;;;3.10;2.40;;;;;;;-0.49;89.04;95561.52;108049;1283;37260;-76
2021/12/25 03:49:25;;;;;;;4.30;2.80;;;;;;;-0.49;88.92;95567.45;108048;1282;41122;-76
2021/12/25 03:57:38;;;;;;;4.30;2.70;;;;;;;-0.48;88.65;95571.42;107867;1284;37719;-76
2021/12/25 04:00:12;;;;;;;4.10;2.10;;;;;;;-0.48;88.43;95577.41;107916;1282;31907;-75
2021/12/25 04:02:51;;;;;;;5.30;2.30;;;;;;;-0.49;88.22;95577.14;107940;1282;32988;-76
2021/12/25 04:05:25;;;;;;;3.80;2.40;;;;;;;-0.50;87.93;95588.33;107898;1283;41641;-76
2021/12/25 04:08:00;;;;;;;4.30;2.30;;;;;;;-0.51;87.70;95587.57;107915;1283;31365;-75
2021/12/25 04:10:32;;;;;;;4.00;2.40;;;;;;;-0.55;87.88;95587.14;107979;1283;39636;-76
2021/12/25 04:13:01;;;;;;;3.80;1.80;;;;;;;-0.59;87.78;95582.11;107949;1283;38336;-76
2021/12/25 04:15:30;;;;;;;4.90;2.80;;;;;;;-0.61;87.90;95586.97;107985;1284;31831;-76
2021/12/25 04:17:58;;;;;;;3.30;2.00;;;;;;;-0.64;87.86;95594.05;108168;1282;31469;-75
2021/12/25 04:20:27;;;;;;;5.10;2.60;;;;;;;-0.66;87.76;95599.70;107987;1283;41402;-76
2021/12/25 04:23:00;;;;;;;4.70;3.10;;;;;;;-0.67;87.80;95606.59;107908;1283;32135;-76
2021/12/25 04:25:31;;;;;;;5.60;3.10;;;;;;;-0.67;87.73;95616.91;107950;1283;44865;-76
2021/12/25 04:28:05;;;;;;;3.40;2.40;;;;;;;-0.68;87.45;95615.74;108088;1283;32230;-75
2021/12/25 04:30:43;;;;;;;3.40;2.20;;;;;;;-0.69;87.10;95616.88;107950;1283;38367;-76
2021/12/25 04:50:11;;;;;;;5.50;2.40;;;;;;;-0.74;86.73;95643.98;108070;1282;30178;-76
2021/12/25 05:03:48;;;;;;;5.10;2.50;;;;;;;-0.67;86.38;95684.15;107918;1281;52968;-76
2021/12/25 05:06:17;;;;;;;5.00;2.60;;;;;;;-0.64;86.30;95686.77;108054;1282;49188;-76
2021/12/25 05:08:45;;;;;;;4.40;2.50;;;;;;;-0.70;86.59;95693.82;107912;1281;42135;-75
2021/12/25 05:11:13;;;;;;;2.90;2.00;;;;;;;-0.89;86.00;95697.45;107921;1283;33044;-76
2021/12/25 05:13:42;;;;;;;2.20;1.60;;;;;;;-1.10;86.00;95701.66;107923;1283;36472;-75
2021/12/25 05:16:10;;;;;;;3.10;1.80;;;;;;;-1.31;85.81;95709.34;107985;1283;42117;-76
2021/12/25 05:18:38;;;;;;;3.10;1.90;;;;;;;-1.49;85.83;95723.20;107875;1283;37172;-76
2021/12/25 05:21:07;;;;;;;2.30;1.80;;;;;;;-1.57;86.33;95719.18;107921;1282;30278;-76
2021/12/25 05:23:36;;;;;;;5.10;2.20;;;;;;;-1.62;86.37;95725.52;108049;1283;47414;-76
2021/12/25 05:26:05;;;;;;;2.30;2.00;;;;;;;-1.72;86.22;95725.59;108057;1283;37569;-76
2021/12/25 05:28:39;;;;;;;2.30;1.70;;;;;;;-1.83;86.47;95736.33;107995;1283;43106;-76
2021/12/25 05:31:09;;;;;;;2.60;1.70;;;;;;;-1.93;86.67;95748.09;108020;1283;41606;-75
2021/12/25 05:33:38;;;;;;;4.40;2.60;;;;;;;-2.00;86.50;95753.90;107882;1281;35467;-75
2021/12/25 05:36:07;;;;;;;3.90;2.30;;;;;;;-2.05;86.74;95760.48;107927;1283;30089;-75
2021/12/25 05:38:36;;;;;;;3.00;1.80;;;;;;;-2.05;86.99;95772.39;107927;1284;39768;-76
2021/12/25 05:41:04;;;;;;;2.90;1.80;;;;;;;-2.07;87.34;95767.35;107875;1283;53336;-76
2021/12/25 05:43:33;;;;;;;2.80;2.30;;;;;;;-2.10;87.31;95765.02;108084;1283;30961;-75
2021/12/25 05:46:01;;;;;;;3.00;2.00;;;;;;;-2.14;87.18;95767.14;107998;1281;32303;-75
2021/12/25 05:48:35;;;;;;;4.70;2.20;;;;;;;-2.16;87.44;95768.52;108059;1278;39724;-76
2021/12/25 05:51:05;;;;;;;5.80;3.40;;;;;;;-2.13;87.48;95777.16;108086;1282;39512;-76
2021/12/25 05:53:34;;;;;;;5.20;3.10;;;;;;;-2.16;87.48;95778.94;108009;1283;50681;-76
2021/12/25 05:56:02;;;;;;;4.50;2.70;;;;;;;-2.26;87.52;95780.67;107891;1281;49045;-75
2021/12/25 05:58:30;;;;;;;5.40;3.40;;;;;;;-2.37;87.54;95796.58;107979;1283;75759;-75
2021/12/25 06:00:59;;;;;;;4.80;3.00;;;;;;;-2.64;87.82;95804.31;107963;1283;36251;-75
2021/12/25 06:03:27;;;;;;;6.30;3.50;;;;;;;-3.03;88.41;95801.64;107919;1282;35451;-75
2021/12/25 06:05:57;;;;;;;8.10;3.60;;;;;;;-3.29;89.31;95792.16;107919;1284;53486;-75
2021/12/25 06:08:25;;;;;;;5.50;3.30;;;;;;;-3.40;89.78;95795.54;107910;1282;40291;-75
2021/12/25 06:10:53;;;;;;;5.10;3.20;;;;;;;-3.45;90.14;95803.48;107908;1283;39303;-75
2021/12/25 06:13:22;;;;;;;6.00;3.10;;;;;;;-3.43;90.29;95815.25;107915;1281;32414;-75
2021/12/25 06:15:52;;;;;;;5.10;3.00;;;;;;;-3.43;90.36;95818.30;108036;1283;38565;-75
2021/12/25 06:18:20;;;;;;;5.60;3.00;;;;;;;-3.42;90.38;95816.09;107959;1283;32144;-75
2021/12/25 06:20:48;;;;;;;4.40;2.90;;;;;;;-3.42;90.39;95823.42;107894;1281;45524;-75
2021/12/25 06:23:16;;;;;;;5.10;2.90;;;;;;;-3.34;90.45;95824.23;107860;1283;41667;-75
2021/12/25 06:25:45;;;;;;;4.90;2.90;;;;;;;-3.29;90.49;95833.63;108056;1282;36438;-75
2021/12/25 06:28:13;;;;;;;4.60;2.60;;;;;;;-3.22;90.35;95842.99;107900;1282;39630;-75
2021/12/25 06:30:43;;;;;;;5.80;3.00;;;;;;;-3.15;90.21;95848.32;108036;1281;52821;-75
2021/12/25 06:33:11;;;;;;;4.70;2.90;;;;;;;-3.12;90.19;95849.56;108063;1282;33844;-75
2021/12/25 06:35:39;;;;;;;4.30;3.20;;;;;;;-3.08;90.04;95851.91;108049;1283;44164;-75
2021/12/25 06:38:08;;;;;;;6.10;3.40;;;;;;;-3.03;90.02;95847.48;107872;1283;44650;-75
2021/12/25 06:40:36;;;;;;;4.70;3.40;;;;;;;-3.01;89.83;95850.36;108053;1282;37246;-75
2021/12/25 06:43:07;;;;;;;4.40;3.00;;;;;;;-2.98;89.73;95855.20;107923;1281;32388;-75
2021/12/25 06:45:35;;;;;;;5.70;3.10;;;;;;;-2.95;89.68;95856.28;108070;1282;44729;-75
2021/12/25 06:48:04;;;;;;;5.60;3.30;;;;;;;-2.96;89.40;95856.88;107925;1282;36154;-75
2021/12/25 06:50:32;;;;;;;4.30;2.80;;;;;;;-3.05;89.29;95859.66;107882;1283;72218;-75
2021/12/25 06:53:00;;;;;;;4.30;3.20;;;;;;;-3.08;89.29;95871.34;107973;1281;42804;-75
2021/12/25 06:55:28;;;;;;;4.80;2.90;;;;;;;-3.05;89.37;95882.32;108109;1283;44984;-75
2021/12/25 06:57:59;;;;;;;5.40;3.10;;;;;;;-3.05;89.37;95897.98;107964;1284;48063;-75
2021/12/25 07:00:27;;;;;;;5.80;2.80;;;;;;;-3.05;89.15;95900.70;108042;1283;31883;-75
2021/12/25 07:02:55;;;;;;;6.00;3.20;;;;;;;-3.16;88.95;95892.08;108097;1282;30709;-75
2021/12/25 07:05:24;;;;;;;5.00;2.80;;;;;;;-3.29;88.99;95890.91;108059;1282;39683;-75
2021/12/25 07:07:52;;;;;;;4.00;3.00;;;;;;;-3.26;89.18;95900.98;108077;1282;37161;-75
2021/12/25 07:10:21;;;;;;;4.40;2.60;;;;;;;-3.26;89.20;95901.06;107922;1281;39342;-75
2021/12/25 07:12:53;;;;;;;3.40;2.40;;;;;;;-3.33;88.98;95894.63;107830;1283;50805;-75
2021/12/25 07:15:21;;;;;;;4.10;2.20;;;;;;;-3.40;88.84;95888.52;107917;1283;45874;-75
2021/12/25 07:17:49;;;;;;;3.30;2.20;;;;;;;-3.44;88.92;95896.07;108029;1282;37297;-75
2021/12/25 07:20:18;;;;;;;3.70;2.70;;;;;;;-3.40;89.09;95891.89;107893;1283;44689;-75
2021/12/25 07:22:46;;;;;;;2.80;2.40;;;;;;;-3.38;89.19;95900.34;107890;1284;34180;-75
2021/12/25 07:25:15;;;;;;;3.00;2.40;;;;;;;-3.37;89.21;95902.17;107875;1281;42736;-75
2021/12/25 07:27:43;;;;;;;3.70;2.60;;;;;;;-3.38;89.08;95910.71;108065;1282;37674;-75
2021/12/25 07:30:12;;;;;;;5.30;2.30;;;;;;;-3.40;89.16;95923.66;107935;1281;33599;-75
2021/12/25 07:32:40;;;;;;;3.90;2.10;;;;;;;-3.39;89.11;95925.97;107908;1280;176557;-75
2021/12/25 07:35:09;;;;;;;3.80;2.10;;;;;;;-3.45;88.58;95932.83;108027;1283;42282;-75
2021/12/25 07:37:37;;;;;;;37.30;19.50;;;;;;;-3.54;88.20;95933.38;108003;1282;42711;-75
2021/12/25 07:40:09;;;;;;;55.70;27.10;;;;;;;-3.63;87.76;95935.39;108035;1281;38896;-75
2021/12/25 07:42:37;;;;;;;35.80;19.60;;;;;;;-3.70;87.48;95937.55;108051;1283;42695;-75
2021/12/25 07:45:08;;;;;;;17.60;9.60;;;;;;;-3.75;87.18;95931.56;108067;1282;40698;-75
2021/12/25 07:47:46;;;;;;;28.10;15.60;;;;;;;-3.81;86.98;95948.46;108060;1283;63460;-75
2021/12/25 07:50:15;;;;;;;18.80;9.70;;;;;;;-3.85;86.81;95959.99;108155;1283;43420;-75
2021/12/25 07:52:43;;;;;;;29.70;14.50;;;;;;;-3.88;86.48;95971.23;108014;1282;38087;-75
2021/12/25 07:55:12;;;;;;;25.90;11.90;;;;;;;-3.91;86.37;95973.20;107972;1283;42813;-75
2021/12/25 07:57:40;;;;;;;12.20;5.70;;;;;;;-3.96;86.21;95962.96;107896;1283;37756;-75
2021/12/25 08:00:12;;;;;;;41.60;20.30;;;;;;;-4.01;86.01;95975.45;107877;1281;44457;-75
2021/12/25 08:02:41;;;;;;;23.30;11.50;;;;;;;-4.04;85.96;95978.25;107920;1283;40256;-75
2021/12/25 08:05:10;;;;;;;19.90;10.40;;;;;;;-4.08;85.98;95974.59;107877;1281;47277;-75
2021/12/25 08:07:39;;;;;;;12.30;5.20;;;;;;;-4.06;85.80;95979.61;107895;1284;42697;-75
2021/12/25 08:10:13;;;;;;;6.80;3.00;;;;;;;-4.07;85.60;95985.75;107940;1281;40367;-75
2021/12/25 08:12:44;;;;;;;4.00;2.30;;;;;;;-4.16;84.74;95991.20;108067;1282;30843;-75
2021/12/25 08:15:14;;;;;;;3.70;2.20;;;;;;;-4.28;84.44;95994.36;107872;1282;53836;-75
2021/12/25 08:17:43;;;;;;;5.20;1.90;;;;;;;-4.38;84.22;95997.02;108044;1283;35247;-75
2021/12/25 08:20:13;;;;;;;6.60;2.60;;;;;;;-4.62;84.08;96003.34;107908;1283;38564;-75
2021/12/25 08:22:42;;;;;;;;;;;;;;;-4.68;84.38;96012.68;107859;1281;48018;-75
2021/12/25 08:25:13;;;;;;;4.60;1.90;;;;;;;-4.64;84.53;96001.27;107858;1282;65116;-75
2021/12/25 08:27:44;;;;;;;3.90;2.30;;;;;;;-4.59;84.83;95990.90;107905;1283;31905;-75
2021/12/25 08:30:14;;;;;;;4.10;2.10;;;;;;;-4.52;84.86;95988.34;107868;1283;35889;-75
2021/12/25 08:32:45;;;;;;;2.80;1.90;;;;;;;-4.47;85.02;95988.39;107934;1281;33171;-75
2021/12/25 08:35:13;;;;;;;;;;;;;;;-4.42;84.97;95994.91;107876;1283;40865;-75
2021/12/25 08:37:43;;;;;;;3.50;2.20;;;;;;;-4.41;84.91;95988.67;107912;1283;38152;-76
2021/12/25 08:40:14;;;;;;;3.70;2.30;;;;;;;-4.51;84.51;95985.21;108138;1281;34648;-75
2021/12/25 08:42:47;;;;;;;3.40;2.00;;;;;;;-4.53;84.59;95982.69;107874;1281;37878;-76
2021/12/25 08:45:38;;;;;;;3.80;2.30;;;;;;;-4.49;84.87;95986.37;107894;1281;36722;-76
2021/12/25 08:48:09;;;;;;;5.50;2.20;;;;;;;-4.45;84.92;95993.77;107894;1283;35126;-76
2021/12/25 08:50:39;;;;;;;5.30;2.60;;;;;;;-4.39;85.02;95999.67;107859;1281;33450;-76
2021/12/25 08:53:08;;;;;;;4.20;2.40;;;;;;;-4.35;84.97;96004.52;107847;1284;41552;-75
2021/12/25 08:55:37;;;;;;;6.90;2.90;;;;;;;-4.47;84.33;96004.94;107917;1283;30358;-75
2021/12/25 08:58:06;;;;;;;7.50;3.30;;;;;;;-4.63;84.28;96008.36;107884;1283;47995;-75
2021/12/25 09:00:34;;;;;;;10.90;5.60;;;;;;;-4.76;84.24;96011.40;107864;1282;55181;-75
2021/12/25 09:03:03;;;;;;;8.00;4.00;;;;;;;-4.84;84.25;96011.55;107860;1283;38657;-75
2021/12/25 09:05:32;;;;;;;5.30;3.10;;;;;;;-4.89;84.66;96016.36;107981;1283;33004;-74
2021/12/25 09:08:01;;;;;;;8.70;4.10;;;;;;;-4.82;85.05;96014.38;107926;1281;35797;-75
2021/12/25 09:10:30;;;;;;;20.50;9.30;;;;;;;-4.73;85.17;96012.84;107928;1283;59630;-75
2021/12/25 09:12:59;;;;;;;54.70;26.90;;;;;;;-4.63;85.42;96009.91;107946;1283;51150;-75
2021/12/25 09:15:28;;;;;;;37.50;21.10;;;;;;;-4.51;85.41;96003.20;107929;1281;40040;-75
2021/12/25 09:17:56;;;;;;;26.90;15.10;;;;;;;-4.42;85.39;96005.62;108078;1281;42357;-75
2021/12/25 09:20:25;;;;;;;18.10;9.60;;;;;;;-4.34;85.13;96004.23;107886;1283;45508;-75
2021/12/25 09:22:53;;;;;;;14.30;7.70;;;;;;;-4.29;84.90;96003.71;107885;1283;43230;-75
2021/12/25 09:25:21;;;;;;;14.90;6.50;;;;;;;-4.25;84.61;96005.58;107911;1281;37584;-75
2021/12/25 09:27:52;;;;;;;20.00;8.30;;;;;;;-4.19;84.46;96008.69;107907;1282;37710;-75
2021/12/25 09:30:21;;;;;;;15.80;6.80;;;;;;;-4.13;84.34;96012.22;107893;1283;42727;-75
2021/12/25 09:32:50;;;;;;;13.30;5.20;;;;;;;-4.06;84.26;96019.95;106573;1283;1786207;-74
2021/12/25 09:35:18;;;;;;;9.80;4.20;;;;;;;-4.02;83.95;96020.09;107905;1283;35905;-77
2021/12/25 09:37:46;;;;;;;3.20;1.70;;;;;;;-4.05;83.30;96012.02;107878;1281;40717;-77
2021/12/25 09:40:17;;;;;;;3.00;1.60;;;;;;;-4.22;82.40;96016.65;107892;1282;54073;-74
2021/12/25 09:42:46;;;;;;;9.00;3.70;;;;;;;-4.42;82.07;96010.88;107898;1281;47941;-74
2021/12/25 09:45:15;;;;;;;7.30;3.70;;;;;;;-4.55;82.48;96017.00;107884;1282;39198;-74
2021/12/25 09:47:43;;;;;;;6.50;3.00;;;;;;;-4.52;82.92;96013.45;107901;1282;36518;-74
2021/12/25 09:50:14;;;;;;;4.30;2.40;;;;;;;-4.58;82.91;96009.31;107831;1283;60934;-75
2021/12/25 09:52:43;;;;;;;4.60;3.00;;;;;;;-4.75;82.82;96003.33;108070;1281;34893;-75
2021/12/25 09:55:14;;;;;;;5.70;3.50;;;;;;;-4.79;83.06;96009.20;107895;1282;65141;-75
2021/12/25 09:57:42;;;;;;;8.30;4.30;;;;;;;-4.78;83.58;96002.01;108025;1282;45363;-76
2021/12/25 10:00:16;;;;;;;5.10;3.40;;;;;;;-4.71;83.68;96003.22;107865;1284;37686;-76
2021/12/25 10:02:47;;;;;;;6.00;3.20;;;;;;;-4.71;83.70;96006.57;107885;1282;44989;-75
2021/12/25 10:05:29;;;;;;;5.50;2.80;;;;;;;-4.74;83.70;95995.59;107926;1284;35797;-75
2021/12/25 10:08:07;;;;;;;4.60;2.90;;;;;;;-4.83;83.44;95994.73;107940;1282;33981;-75
2021/12/25 10:10:45;;;;;;;6.80;3.90;;;;;;;-4.86;83.68;95996.87;107914;1281;36079;-75
2021/12/25 10:13:23;;;;;;;5.30;3.50;;;;;;;-4.83;84.06;95993.85;107895;1284;35955;-75
2021/12/25 10:15:54;;;;;;;6.80;3.60;;;;;;;-4.68;84.55;95989.21;108075;1282;50048;-75
2021/12/25 10:18:33;;;;;;;7.80;4.10;;;;;;;-4.51;84.66;95983.69;107927;1282;35700;-75
2021/12/25 10:21:22;;;;;;;6.00;3.30;;;;;;;-4.51;84.29;95982.22;108067;1284;40563;-75
2021/12/25 10:24:10;;;;;;;7.40;3.60;;;;;;;-4.61;84.04;95983.50;107942;1283;43180;-75
2021/12/25 10:26:41;;;;;;;8.20;4.00;;;;;;;-4.64;83.99;95989.70;107881;1281;35308;-75
2021/12/25 10:29:26;;;;;;;8.20;5.30;;;;;;;-4.77;83.86;95990.48;108049;1282;35138;-75
2021/12/25 10:32:13;;;;;;;6.90;4.60;;;;;;;-4.85;84.18;95986.41;107934;1283;39913;-75
2021/12/25 10:34:42;;;;;;;7.60;4.30;;;;;;;-4.66;84.70;95986.67;107940;1283;36497;-75
2021/12/25 10:37:12;;;;;;;5.90;3.90;;;;;;;-4.59;84.46;95986.32;107891;1282;43592;-75
2021/12/25 10:39:40;;;;;;;;;;;;;;;-4.74;84.06;95990.88;108109;1283;35776;-75
2021/12/25 10:42:12;;;;;;;7.00;4.00;;;;;;;-4.83;84.26;95983.98;107912;1284;37715;-76
2021/12/25 10:44:42;;;;;;;7.00;4.20;;;;;;;-4.77;84.57;95983.91;108075;1283;36320;-76
2021/12/25 10:47:13;;;;;;;8.30;4.60;;;;;;;-4.68;84.61;95991.64;107891;1282;41071;-76
2021/12/25 10:49:44;;;;;;;39.20;21.30;;;;;;;-4.64;84.56;95994.12;107896;1283;34970;-76
2021/12/25 10:52:16;;;;;;;17.80;10.50;;;;;;;-4.48;84.81;95994.52;107867;1281;35274;-76
2021/12/25 10:54:46;;;;;;;11.50;6.80;;;;;;;-4.36;84.72;95988.46;107896;1283;36091;-76
2021/12/25 10:57:28;;;;;;;;;;;;;;;-4.37;84.21;95986.03;108007;1283;41599;-76
2021/12/25 10:59:56;;;;;;;5.70;4.10;;;;;;;-4.37;84.13;95990.02;107924;1283;31349;-76
2021/12/25 11:02:33;;;;;;;5.70;4.00;;;;;;;-4.44;83.98;95989.91;107869;1281;38577;-76
2021/12/25 11:05:15;;;;;;;6.40;3.80;;;;;;;-4.46;84.07;95988.47;107984;1283;28766;-76
2021/12/25 11:07:44;;;;;;;7.70;4.60;;;;;;;-4.43;84.25;95991.26;108065;1283;63521;-76
2021/12/25 11:10:15;;;;;;;8.30;4.20;;;;;;;-4.35;84.50;95985.88;107888;1282;33581;-76
2021/12/25 11:12:44;;;;;;;4.60;3.40;;;;;;;-4.30;84.30;95985.44;107917;1282;42545;-76
2021/12/25 11:15:15;;;;;;;8.40;4.10;;;;;;;-4.39;83.92;95982.34;108071;1282;32750;-76
2021/12/25 11:17:50;;;;;;;9.20;4.20;;;;;;;-4.45;84.32;95981.95;107898;1284;37969;-76
2021/12/25 11:20:28;;;;;;;7.20;4.20;;;;;;;-4.38;84.91;95989.30;107885;1281;37256;-76
2021/12/25 11:22:59;;;;;;;5.80;4.10;;;;;;;-4.31;84.90;95988.71;107887;1282;40551;-76
2021/12/25 11:25:30;;;;;;;7.50;4.50;;;;;;;-4.28;84.66;95986.23;108117;1282;33710;-76
2021/12/25 11:28:01;;;;;;;13.60;6.10;;;;;;;-4.28;84.68;95988.94;108150;1281;40568;-75
2021/12/25 11:30:32;;;;;;;7.20;4.30;;;;;;;-4.24;84.61;95986.66;107984;1284;35985;-76
2021/12/25 11:33:02;;;;;;;8.90;5.30;;;;;;;-4.25;84.48;95988.38;107976;1283;39640;-76
2021/12/25 11:35:33;;;;;;;8.50;5.50;;;;;;;-4.24;84.36;95992.04;107958;1281;39408;-75
2021/12/25 11:38:06;;;;;;;8.00;4.60;;;;;;;-4.18;84.57;95986.46;107995;1282;53626;-76
2021/12/25 11:40:39;;;;;;;8.00;4.70;;;;;;;-4.29;83.98;95984.44;107810;1283;66152;-76
2021/12/25 11:43:08;;;;;;;7.30;4.00;;;;;;;-4.45;83.79;95977.53;107879;1282;42837;-75
2021/12/25 11:45:43;;;;;;;15.90;5.80;;;;;;;-4.67;83.80;95980.52;107871;1281;32881;-76
2021/12/25 11:48:17;;;;;;;8.80;4.80;;;;;;;-4.76;84.44;95981.46;108083;1283;34239;-75
2021/12/25 11:50:47;;;;;;;9.10;4.60;;;;;;;-4.70;84.71;95983.40;108037;1283;55074;-75
2021/12/25 11:53:22;;;;;;;7.80;4.30;;;;;;;-4.62;84.81;95980.63;107896;1281;35468;-76
2021/12/25 11:58:56;;;;;;;13.10;5.30;;;;;;;-4.49;84.87;95983.14;108050;1278;46495;-76
2021/12/25 12:01:34;;;;;;;9.30;4.80;;;;;;;-4.50;84.51;95985.80;107916;1283;30993;-75
2021/12/25 12:04:12;;;;;;;19.70;9.90;;;;;;;-4.55;84.38;95987.95;108000;1284;41856;-75
2021/12/25 12:07:04;;;;;;;9.40;5.50;;;;;;;-4.47;84.43;95984.39;108055;1284;41817;-76
2021/12/25 12:09:50;;;;;;;8.50;4.20;;;;;;;-4.49;84.12;95990.52;107946;1281;40541;-75
2021/12/25 12:12:23;;;;;;;13.00;5.70;;;;;;;-4.46;84.04;95988.27;107897;1281;44685;-75
2021/12/25 12:15:13;;;;;;;8.60;4.70;;;;;;;-4.45;83.95;95990.83;108104;1283;42908;-75
2021/12/25 12:17:43;;;;;;;10.30;5.90;;;;;;;-4.56;83.53;95996.02;107914;1284;38566;-75
2021/12/25 12:20:19;;;;;;;19.00;9.80;;;;;;;-4.47;83.97;95995.59;107890;1283;47468;-75
2021/12/25 12:22:56;;;;;;;9.40;5.60;;;;;;;-4.36;84.09;95997.95;108077;1283;60045;-75
2021/12/25 12:25:42;;;;;;;9.10;5.20;;;;;;;-4.40;83.53;95994.79;108076;1282;53254;-76
2021/12/25 12:28:11;;;;;;;15.10;6.50;;;;;;;-4.34;83.79;95999.42;108067;1283;33193;-75
2021/12/25 12:30:52;;;;;;;9.00;4.80;;;;;;;-4.30;83.49;95999.96;108072;1282;33470;-75
2021/12/25 12:33:36;;;;;;;7.80;5.10;;;;;;;-4.44;82.88;96004.23;107917;1283;43642;-75
2021/12/25 12:36:20;;;;;;;11.00;4.90;;;;;;;-4.46;83.23;96000.45;107875;1283;37407;-75